createdAt,value
2018-11-23T00:01:30.785Z,91.30
2018-11-23T00:04:02.138Z,91.20
2018-11-23T00:06:35.821Z,91.30
2018-11-23T00:09:10.300Z,91.20
2018-11-23T00:11:44.043Z,91.20
2018-11-23T00:14:18.384Z,91.10
2018-11-23T00:16:49.878Z,90.90
2018-11-23T00:19:21.434Z,91.40
2018-11-23T00:21:54.251Z,91.20
2018-11-23T00:24:25.506Z,91.10
2018-11-23T00:26:57.161Z,90.90
2018-11-23T00:29:28.308Z,91.00
2018-11-23T00:31:59.549Z,91.20
2018-11-23T00:34:31.465Z,91.20
2018-11-23T00:37:02.730Z,91.20
2018-11-23T00:39:33.815Z,91.20
2018-11-23T00:42:06.315Z,91.00
2018-11-23T00:44:38.560Z,91.00
2018-11-23T00:47:16.305Z,91.10
2018-11-23T00:49:47.832Z,90.90
2018-11-23T00:52:19.042Z,90.90
2018-11-23T00:54:50.588Z,90.90
2018-11-23T00:57:21.967Z,90.60
2018-11-23T00:59:53.086Z,90.50
2018-11-23T01:02:29.063Z,90.70
2018-11-23T01:05:04.364Z,90.60
2018-11-23T01:07:36.598Z,90.50
2018-11-23T01:10:10.364Z,90.40
2018-11-23T01:12:42.121Z,90.30
2018-11-23T01:15:13.575Z,90.10
2018-11-23T01:17:45.305Z,90.50
2018-11-23T01:20:28.029Z,90.20
2018-11-23T01:22:59.912Z,90.20
2018-11-23T01:25:31.227Z,90.30
2018-11-23T01:28:02.787Z,90.40
2018-11-23T01:30:34.009Z,90.40
2018-11-23T01:33:05.244Z,90.40
2018-11-23T01:35:36.527Z,90.40
2018-11-23T01:38:07.734Z,90.40
2018-11-23T01:40:38.947Z,90.50
2018-11-23T01:43:10.142Z,90.30
2018-11-23T01:45:42.193Z,90.20
2018-11-23T01:48:13.230Z,90.40
2018-11-23T01:50:44.562Z,90.50
2018-11-23T01:53:15.770Z,90.50
2018-11-23T01:55:46.926Z,90.30
2018-11-23T01:58:18.098Z,90.30
2018-11-23T02:00:49.286Z,90.40
2018-11-23T02:03:23.366Z,90.40
2018-11-23T02:05:54.600Z,90.30
2018-11-23T02:08:25.777Z,90.20
2018-11-23T02:10:56.951Z,90.20
2018-11-23T02:13:28.089Z,90.20
2018-11-23T02:15:59.340Z,90.40
2018-11-23T02:18:30.517Z,90.50
2018-11-23T02:21:01.684Z,90.70
2018-11-23T02:23:32.725Z,90.50
2018-11-23T02:26:04.017Z,90.30
2018-11-23T02:28:35.289Z,90.20
2018-11-23T02:31:10.665Z,90.30
2018-11-23T02:33:42.256Z,90.20
2018-11-23T02:36:13.521Z,90.10
2018-11-23T02:38:44.761Z,90.20
2018-11-23T02:41:15.951Z,90.00
2018-11-23T02:43:46.978Z,90.00
2018-11-23T02:46:18.148Z,89.80
2018-11-23T02:48:49.441Z,90.00
2018-11-23T02:51:20.765Z,89.80
2018-11-23T02:53:51.957Z,90.10
2018-11-23T02:56:23.225Z,90.00
2018-11-23T02:58:54.577Z,90.00
2018-11-23T03:01:25.968Z,89.80
2018-11-23T03:03:57.633Z,90.20
2018-11-23T03:06:28.974Z,90.40
2018-11-23T03:09:00.140Z,90.20
2018-11-23T03:11:38.467Z,90.20
2018-11-23T03:14:09.836Z,90.10
2018-11-23T03:16:40.717Z,90.20
2018-11-23T03:19:11.639Z,90.30
2018-11-23T03:22:21.392Z,90.40
2018-11-23T03:25:12.420Z,90.60
2018-11-23T03:28:02.271Z,90.40
2018-11-23T03:30:52.111Z,90.30
2018-11-23T03:33:42.319Z,90.50
2018-11-23T03:36:32.437Z,90.50
2018-11-23T03:39:03.757Z,90.40
2018-11-23T03:41:34.937Z,90.50
2018-11-23T03:44:24.778Z,90.40
2018-11-23T03:47:14.649Z,90.20
2018-11-23T03:50:05.002Z,90.20
2018-11-23T03:52:54.808Z,90.20
2018-11-23T03:55:45.081Z,90.20
2018-11-23T03:58:34.877Z,90.20
2018-11-23T04:01:24.817Z,90.20
2018-11-23T04:03:55.630Z,90.20
2018-11-23T04:09:22.189Z,90.40
2018-11-23T04:12:12.019Z,90.30
2018-11-23T04:14:42.964Z,90.30
2018-11-23T04:17:32.821Z,90.50
2018-11-23T04:20:22.656Z,90.50
2018-11-23T04:23:32.061Z,90.50
2018-11-23T04:26:24.834Z,90.60
2018-11-23T04:29:12.771Z,90.70
2018-11-23T04:32:02.604Z,90.80
2018-11-23T04:35:13.371Z,90.80
2018-11-23T04:38:03.218Z,90.80
2018-11-23T04:40:53.087Z,90.70
2018-11-23T04:43:42.966Z,90.70
2018-11-23T04:46:32.810Z,91.00
2018-11-23T04:49:22.969Z,91.10
2018-11-23T04:52:12.848Z,91.00
2018-11-23T04:55:02.695Z,90.60
2018-11-23T04:57:53.785Z,90.60
2018-11-23T05:03:52.157Z,90.70
2018-11-23T05:06:42.001Z,90.90
2018-11-23T05:09:31.829Z,90.80
2018-11-23T05:12:21.874Z,90.70
2018-11-23T05:15:31.282Z,90.80
2018-11-23T05:18:40.214Z,90.80
2018-11-23T05:21:30.055Z,90.70
2018-11-23T05:24:19.916Z,90.80
2018-11-23T05:27:09.801Z,90.80
2018-11-23T05:29:59.654Z,90.70
2018-11-23T05:32:49.520Z,90.70
2018-11-23T05:35:39.364Z,90.50
2018-11-23T05:38:47.904Z,90.50
2018-11-23T05:41:56.821Z,90.50
2018-11-23T05:44:46.652Z,90.50
2018-11-23T05:47:36.717Z,90.60
2018-11-23T05:50:27.000Z,90.90
2018-11-23T05:53:16.855Z,91.10
2018-11-23T05:59:16.066Z,91.20
2018-11-23T06:02:24.596Z,91.60
2018-11-23T06:05:14.545Z,91.30
2018-11-23T06:08:04.411Z,91.10
2018-11-23T06:10:54.974Z,91.10
2018-11-23T06:13:44.839Z,91.10
2018-11-23T06:20:03.087Z,91.30
2018-11-23T06:23:11.995Z,91.10
2018-11-23T06:26:21.805Z,91.30
2018-11-23T06:29:11.665Z,91.30
2018-11-23T06:31:54.143Z,91.20
2018-11-23T06:35:03.475Z,91.40
2018-11-23T06:38:12.855Z,91.30
2018-11-23T06:41:10.041Z,91.20
2018-11-23T06:43:54.016Z,91.20
2018-11-23T06:46:44.138Z,91.20
2018-11-23T06:49:34.002Z,91.30
2018-11-23T06:52:23.952Z,91.30
2018-11-23T06:55:33.651Z,91.30
2018-11-23T07:01:38.130Z,91.10
2018-11-23T07:04:47.081Z,91.20
2018-11-23T07:07:37.004Z,91.00
2018-11-23T07:10:26.896Z,91.30
2018-11-23T07:13:16.785Z,91.40
2018-11-23T07:15:47.640Z,91.40
2018-11-23T07:18:37.620Z,91.10
2018-11-23T07:21:27.557Z,91.50
2018-11-23T07:24:17.437Z,91.30
2018-11-23T07:27:07.324Z,91.20
2018-11-23T07:29:57.178Z,91.40
2018-11-23T07:33:06.100Z,91.70
2018-11-23T07:35:55.961Z,91.70
2018-11-23T07:38:46.103Z,91.60
2018-11-23T07:47:30.971Z,91.40
2018-11-23T07:50:40.200Z,91.50
2018-11-23T07:53:49.144Z,91.60
2018-11-23T07:56:39.008Z,91.70
2018-11-23T07:59:28.992Z,91.50
2018-11-23T08:02:18.851Z,91.40
2018-11-23T08:05:10.735Z,91.30
2018-11-23T08:08:00.609Z,91.40
2018-11-23T08:10:49.281Z,91.30
2018-11-23T08:13:39.742Z,91.60
2018-11-23T08:16:29.604Z,91.80
2018-11-23T08:19:38.969Z,91.60
2018-11-23T08:22:28.869Z,91.70
2018-11-23T08:25:19.935Z,91.40
2018-11-23T08:31:38.036Z,91.40
2018-11-23T08:34:28.044Z,91.60
2018-11-23T08:37:17.943Z,91.70
2018-11-23T08:40:29.956Z,91.10
2018-11-23T08:43:19.965Z,91.30
2018-11-23T08:45:50.839Z,91.00
2018-11-23T08:48:59.830Z,91.10
2018-11-23T08:51:31.077Z,91.20
2018-11-23T08:54:02.426Z,91.20
2018-11-23T08:59:22.530Z,91.00
2018-11-23T09:02:12.512Z,90.90
2018-11-23T09:05:02.385Z,90.90
2018-11-23T09:07:54.223Z,91.10
2018-11-23T09:10:44.195Z,91.10
2018-11-23T09:13:15.395Z,90.90
2018-11-23T09:16:24.614Z,91.00
2018-11-23T09:19:14.525Z,90.90
2018-11-23T09:21:45.500Z,91.10
2018-11-23T09:24:16.588Z,91.20
2018-11-23T09:26:47.484Z,91.10
2018-11-23T09:29:18.339Z,90.90
2018-11-23T09:31:49.315Z,91.10
2018-11-23T09:34:20.154Z,91.00
2018-11-23T09:36:51.293Z,91.10
2018-11-23T09:39:22.280Z,91.20
2018-11-23T09:41:53.207Z,91.20
2018-11-23T09:44:24.192Z,91.40
2018-11-23T09:46:55.215Z,91.20
2018-11-23T09:49:26.067Z,91.00
2018-11-23T09:51:56.927Z,91.00
2018-11-23T09:55:01.706Z,91.00
2018-11-23T09:57:31.106Z,91.40
2018-11-23T10:00:00.303Z,90.90
2018-11-23T10:02:29.512Z,90.80
2018-11-23T10:04:58.704Z,90.80
2018-11-23T10:07:27.899Z,90.60
2018-11-23T10:09:58.145Z,90.40
2018-11-23T10:12:27.368Z,90.50
2018-11-23T10:14:56.534Z,91.30
2018-11-23T10:17:25.823Z,91.30
2018-11-23T10:19:58.143Z,91.40
2018-11-23T10:22:24.331Z,91.20
2018-11-23T10:24:53.510Z,91.00
2018-11-23T10:27:22.734Z,90.90
2018-11-23T10:29:55.336Z,90.70
2018-11-23T10:32:21.315Z,91.00
2018-11-23T10:34:50.553Z,91.20
2018-11-23T10:37:19.798Z,91.10
2018-11-23T10:39:49.018Z,90.80
2018-11-23T10:42:18.227Z,90.70
2018-11-23T10:44:47.527Z,90.50
2018-11-23T10:47:16.797Z,90.50
2018-11-23T10:49:46.009Z,90.60
2018-11-23T10:52:15.214Z,90.70
2018-11-23T10:54:44.421Z,90.80
2018-11-23T10:57:13.626Z,90.60
2018-11-23T10:59:42.770Z,90.30
2018-11-23T11:02:17.131Z,90.40
2018-11-23T11:04:52.757Z,90.20
2018-11-23T11:07:21.935Z,90.30
2018-11-23T11:09:51.092Z,90.50
2018-11-23T11:12:20.266Z,90.50
2018-11-23T11:14:49.396Z,90.60
2018-11-23T11:17:18.552Z,90.90
2018-11-23T11:19:47.723Z,90.60
2018-11-23T11:22:16.870Z,90.80
2018-11-23T11:24:46.015Z,90.20
2018-11-23T11:27:15.160Z,89.80
2018-11-23T11:29:44.311Z,90.00
2018-11-23T11:32:13.478Z,89.80
2018-11-23T11:34:42.648Z,90.10
2018-11-23T11:37:11.854Z,90.40
2018-11-23T11:39:41.054Z,90.00
2018-11-23T11:42:10.507Z,90.20
2018-11-23T11:44:39.713Z,90.50
2018-11-23T11:47:08.894Z,90.50
2018-11-23T11:49:38.133Z,90.80
2018-11-23T11:52:07.339Z,90.90
2018-11-23T11:54:36.559Z,91.00
2018-11-23T11:57:06.002Z,90.90
2018-11-23T11:59:35.217Z,90.90
2018-11-23T12:02:10.044Z,91.00
2018-11-23T12:04:33.598Z,90.90
2018-11-23T12:07:02.842Z,91.00
2018-11-23T12:09:32.051Z,91.10
2018-11-23T12:12:01.346Z,90.90
2018-11-23T12:14:30.686Z,90.80
2018-11-23T12:16:59.926Z,90.60
2018-11-23T12:19:29.122Z,90.50
2018-11-23T12:21:58.345Z,90.40
2018-11-23T12:24:27.530Z,90.60
2018-11-23T12:26:56.786Z,90.30
2018-11-23T12:29:25.939Z,90.50
2018-11-23T12:31:55.126Z,90.70
2018-11-23T12:34:24.267Z,90.40
2018-11-23T12:36:53.465Z,90.30
2018-11-23T12:39:22.684Z,90.20
2018-11-23T12:41:51.888Z,90.10
2018-11-23T12:44:21.037Z,89.70
2018-11-23T12:46:50.518Z,89.80
2018-11-23T12:49:19.662Z,90.00
2018-11-23T12:51:48.879Z,90.10
2018-11-23T12:54:18.049Z,90.20
2018-11-23T12:56:47.195Z,90.10
2018-11-23T12:59:16.345Z,90.20
2018-11-23T13:01:45.496Z,90.00
2018-11-23T13:04:14.641Z,90.10
2018-11-23T13:06:43.837Z,90.50
2018-11-23T13:09:13.066Z,90.90
2018-11-23T13:11:42.759Z,90.90
2018-11-23T13:14:11.934Z,90.90
2018-11-23T13:16:41.105Z,90.70
2018-11-23T13:19:10.270Z,90.80
2018-11-23T13:21:39.450Z,90.60
2018-11-23T13:24:08.795Z,90.80
2018-11-23T13:26:37.974Z,90.70
2018-11-23T13:29:15.586Z,90.80
2018-11-23T13:31:36.376Z,90.90
2018-11-23T13:34:05.612Z,91.00
2018-11-23T13:36:34.846Z,91.00
2018-11-23T13:39:05.361Z,91.00
2018-11-23T13:41:34.585Z,91.00
2018-11-23T13:44:03.840Z,91.00
2018-11-23T13:46:33.042Z,91.10
2018-11-23T13:49:02.290Z,91.20
2018-11-23T13:51:31.508Z,90.90
2018-11-23T13:54:00.734Z,90.90
2018-11-23T13:56:29.992Z,91.00
2018-11-23T13:58:59.169Z,91.10
2018-11-23T14:01:28.417Z,91.10
2018-11-23T14:03:57.670Z,91.00
2018-11-23T14:06:26.990Z,91.10
2018-11-23T14:08:56.219Z,91.20
2018-11-23T14:11:25.481Z,91.30
2018-11-23T14:13:54.713Z,91.20
2018-11-23T14:16:23.943Z,91.20
2018-11-23T14:18:53.101Z,91.20
2018-11-23T14:21:22.418Z,91.20
2018-11-23T14:23:51.571Z,91.20
2018-11-23T14:26:20.967Z,91.30
2018-11-23T14:28:50.107Z,91.30
2018-11-23T14:31:19.355Z,91.40
2018-11-23T14:33:48.535Z,91.40
2018-11-23T14:36:17.726Z,91.50
2018-11-23T14:38:46.947Z,91.90
2018-11-23T14:41:16.138Z,91.50
2018-11-23T14:43:45.454Z,91.40
2018-11-23T14:46:14.650Z,91.30
2018-11-23T14:48:43.840Z,91.40
2018-11-23T14:51:13.097Z,91.30
2018-11-23T14:53:42.246Z,91.10
2018-11-23T14:56:11.446Z,91.20
2018-11-23T14:58:40.597Z,91.30
2018-11-23T15:01:09.794Z,91.40
2018-11-23T15:03:38.968Z,91.30
2018-11-23T15:06:08.161Z,91.30
2018-11-23T15:08:37.318Z,91.30
2018-11-23T15:11:07.043Z,91.30
2018-11-23T15:13:36.680Z,91.40
2018-11-23T15:16:06.043Z,91.60
2018-11-23T15:18:35.250Z,91.30
2018-11-23T15:21:04.401Z,91.00
2018-11-23T15:23:33.614Z,91.20
2018-11-23T15:26:02.796Z,91.30
2018-11-23T15:28:32.032Z,91.30
2018-11-23T15:31:01.223Z,91.70
2018-11-23T15:33:30.422Z,91.40
2018-11-23T15:35:59.578Z,91.40
2018-11-23T15:38:28.801Z,91.60
2018-11-23T15:40:57.996Z,91.70
2018-11-23T15:43:27.230Z,91.80
2018-11-23T15:45:56.371Z,91.80
2018-11-23T15:48:25.647Z,91.80
2018-11-23T15:50:54.864Z,92.00
2018-11-23T15:53:24.090Z,92.10
2018-11-23T15:55:53.417Z,92.00
2018-11-23T15:58:22.798Z,92.00
2018-11-23T16:00:52.562Z,92.00
2018-11-23T16:03:21.763Z,92.00
2018-11-23T16:05:50.939Z,92.00
2018-11-23T16:08:21.842Z,92.00
2018-11-23T16:10:51.015Z,92.00
2018-11-23T16:13:20.301Z,92.10
2018-11-23T16:15:49.456Z,92.10
2018-11-23T16:18:18.649Z,92.00
2018-11-23T16:20:47.999Z,92.00
2018-11-23T16:23:19.615Z,91.90
2018-11-23T16:25:49.372Z,92.00
2018-11-23T16:28:18.578Z,92.00
2018-11-23T16:30:49.111Z,92.40
2018-11-23T16:33:19.912Z,91.90
2018-11-23T16:35:49.234Z,92.00
2018-11-23T16:38:19.819Z,91.90
2018-11-23T16:40:51.515Z,91.90
2018-11-23T16:43:20.717Z,91.90
2018-11-23T16:45:49.914Z,91.90
2018-11-23T16:48:19.790Z,91.90
2018-11-23T16:50:48.911Z,91.90
2018-11-23T16:53:18.162Z,91.70
2018-11-23T16:55:47.364Z,91.80
2018-11-23T16:58:16.546Z,91.80
2018-11-23T17:00:47.068Z,91.90
2018-11-23T17:03:19.794Z,92.00
2018-11-23T17:05:51.491Z,92.10
2018-11-23T17:08:20.844Z,92.10
2018-11-23T17:10:49.983Z,92.30
2018-11-23T17:13:19.204Z,92.00
2018-11-23T17:15:48.343Z,92.10
2018-11-23T17:18:17.937Z,92.10
2018-11-23T17:20:47.114Z,92.00
2018-11-23T17:23:16.298Z,92.00
2018-11-23T17:25:45.470Z,92.00
2018-11-23T17:28:14.598Z,92.00
2018-11-23T17:30:43.756Z,92.00
2018-11-23T17:33:12.947Z,92.00
2018-11-23T17:35:42.087Z,92.10
2018-11-23T17:38:11.270Z,92.00
2018-11-23T17:40:41.329Z,92.00
2018-11-23T17:43:11.141Z,92.00
2018-11-23T17:45:40.357Z,92.00
2018-11-23T17:48:09.525Z,92.00
2018-11-23T17:50:39.598Z,92.00
2018-11-23T17:53:08.794Z,92.30
2018-11-23T17:55:37.978Z,92.30
2018-11-23T17:58:07.158Z,92.00
2018-11-23T18:00:39.101Z,91.90
2018-11-23T18:03:05.890Z,91.90
2018-11-23T18:05:35.724Z,91.80
2018-11-23T18:08:05.787Z,91.90
2018-11-23T18:10:35.324Z,92.20
2018-11-23T18:13:04.556Z,92.00
2018-11-23T18:15:34.746Z,92.00
2018-11-23T18:18:04.681Z,91.90
2018-11-23T18:20:34.438Z,91.90
2018-11-23T18:23:04.301Z,91.80
2018-11-23T18:25:35.302Z,91.70
2018-11-23T18:28:04.638Z,91.40
2018-11-23T18:30:34.877Z,91.70
2018-11-23T18:33:08.896Z,91.90
2018-11-23T18:35:38.330Z,91.70
2018-11-23T18:38:07.523Z,91.90
2018-11-23T18:40:37.743Z,91.80
2018-11-23T18:43:06.743Z,91.90
2018-11-23T18:45:35.951Z,91.90
2018-11-23T18:48:05.184Z,91.90
2018-11-23T18:50:34.451Z,92.00
2018-11-23T18:53:03.610Z,92.20
2018-11-23T18:55:32.932Z,92.20
2018-11-23T18:58:02.141Z,92.40
2018-11-23T19:00:31.392Z,92.40
2018-11-23T19:03:00.657Z,92.40
2018-11-23T19:05:29.896Z,92.40
2018-11-23T19:07:59.077Z,92.40
2018-11-23T19:10:28.370Z,92.40
2018-11-23T19:12:57.578Z,92.50
2018-11-23T19:15:26.781Z,92.50
2018-11-23T19:17:55.978Z,92.50
2018-11-23T19:20:25.278Z,92.50
2018-11-23T19:22:55.653Z,92.50
2018-11-23T19:25:24.854Z,92.60
2018-11-23T19:27:54.052Z,92.60
2018-11-23T19:30:28.765Z,92.50
2018-11-23T19:32:54.010Z,92.50
2018-11-23T19:35:23.254Z,92.80
2018-11-23T19:37:52.472Z,92.80
2018-11-23T19:40:21.642Z,92.80
2018-11-23T19:42:50.874Z,92.90
2018-11-23T19:45:20.084Z,92.90
2018-11-23T19:47:49.278Z,93.00
2018-11-23T19:50:22.174Z,94.90
2018-11-23T19:52:51.526Z,93.60
2018-11-23T19:55:20.696Z,92.40
2018-11-23T19:57:49.989Z,92.00
2018-11-23T20:00:25.349Z,92.40
2018-11-23T20:02:54.626Z,92.40
2018-11-23T20:05:24.139Z,92.50
2018-11-23T20:07:55.758Z,92.50
2018-11-23T20:10:25.830Z,92.60
2018-11-23T20:12:57.536Z,92.60
2018-11-23T20:15:26.786Z,92.60
2018-11-23T20:17:56.189Z,92.60
2018-11-23T20:20:25.401Z,92.80
2018-11-23T20:22:54.629Z,92.80
2018-11-23T20:25:23.798Z,92.80
2018-11-23T20:27:53.666Z,92.80
2018-11-23T20:30:22.862Z,92.60
2018-11-23T20:32:52.102Z,92.60
2018-11-23T20:35:22.609Z,92.50
2018-11-23T20:37:52.098Z,92.50
2018-11-23T20:40:22.985Z,92.50
2018-11-23T20:42:52.677Z,92.50
2018-11-23T20:45:21.914Z,92.50
2018-11-23T20:47:51.223Z,92.50
2018-11-23T20:50:20.385Z,92.30
2018-11-23T20:52:50.670Z,92.10
2018-11-23T20:55:21.520Z,92.20
2018-11-23T20:57:50.849Z,92.20
2018-11-23T21:00:21.486Z,92.10
2018-11-23T21:02:52.138Z,92.20
2018-11-23T21:05:22.442Z,92.10
2018-11-23T21:07:52.088Z,92.10
2018-11-23T21:10:24.194Z,92.20
2018-11-23T21:12:55.397Z,92.20
2018-11-23T21:15:27.515Z,92.20
2018-11-23T21:18:01.769Z,92.20
2018-11-23T21:20:30.944Z,92.30
2018-11-23T21:23:00.150Z,92.30
2018-11-23T21:25:29.315Z,92.30
2018-11-23T21:27:58.543Z,92.20
2018-11-23T21:30:27.691Z,92.20
2018-11-23T21:32:57.474Z,92.30
2018-11-23T21:35:26.903Z,92.30
2018-11-23T21:37:56.173Z,92.20
2018-11-23T21:40:25.362Z,92.20
2018-11-23T21:42:54.840Z,92.20
2018-11-23T21:45:24.051Z,92.10
2018-11-23T21:47:53.230Z,92.20
2018-11-23T21:50:25.484Z,92.20
2018-11-23T21:52:51.798Z,92.10
2018-11-23T21:55:24.502Z,92.00
2018-11-23T21:57:55.700Z,92.30
2018-11-23T22:00:24.888Z,91.90
2018-11-23T22:02:54.157Z,91.90
2018-11-23T22:05:23.346Z,91.80
2018-11-23T22:07:52.532Z,91.90
2018-11-23T22:10:21.754Z,91.90
2018-11-23T22:12:50.981Z,91.80
2018-11-23T22:15:23.930Z,91.90
2018-11-23T22:17:55.958Z,91.90
2018-11-23T22:20:26.031Z,91.80
2018-11-23T22:22:55.266Z,91.80
2018-11-23T22:25:24.845Z,91.70
2018-11-23T22:27:54.046Z,91.70
2018-11-23T22:30:29.034Z,91.70
2018-11-23T22:32:58.447Z,91.60
2018-11-23T22:35:29.226Z,91.70
2018-11-23T22:37:58.410Z,91.70
2018-11-23T22:40:27.758Z,91.70
2018-11-23T22:42:58.608Z,91.90
2018-11-23T22:45:27.877Z,91.90
2018-11-23T22:47:57.090Z,91.80
2018-11-23T22:50:26.306Z,91.80
2018-11-23T22:52:55.499Z,91.90
2018-11-23T22:55:24.854Z,91.90
2018-11-23T22:57:54.044Z,91.80
2018-11-23T23:00:33.806Z,91.80
2018-11-23T23:03:02.979Z,91.80
2018-11-23T23:05:32.195Z,91.80
2018-11-23T23:08:01.426Z,91.90
2018-11-23T23:10:30.645Z,92.00
2018-11-23T23:12:59.876Z,91.90
2018-11-23T23:15:29.098Z,92.00
2018-11-23T23:17:58.288Z,92.00
2018-11-23T23:20:27.502Z,92.10
2018-11-23T23:22:56.785Z,92.10
2018-11-23T23:25:25.998Z,92.00
2018-11-23T23:27:55.208Z,92.00
2018-11-23T23:30:24.538Z,92.30
2018-11-23T23:32:53.739Z,92.00
2018-11-23T23:35:22.967Z,92.00
2018-11-23T23:37:52.154Z,91.80
2018-11-23T23:40:21.307Z,91.90
2018-11-23T23:42:50.440Z,91.90
2018-11-23T23:45:19.851Z,92.00
2018-11-23T23:47:49.038Z,92.00
2018-11-23T23:50:22.132Z,92.00
2018-11-23T23:52:51.910Z,92.00
2018-11-23T23:55:21.143Z,92.10
2018-11-23T23:57:50.347Z,92.50
